sensor_id;sensor_type;location;lat;lon;timestamp;P1;durP1;ratioP1;P2;durP2;ratioP2
51366;SDS011;37458;49.428;8.646;2023-03-11T12:45:58;4.05;;;1.90;;
51366;SDS011;37458;49.428;8.646;2023-03-11T12:48:31;4.05;;;2.28;;
51366;SDS011;37458;49.428;8.646;2023-03-11T12:50:57;2.53;;;1.63;;
51366;SDS011;37458;49.428;8.646;2023-03-11T12:56:12;4.03;;;2.03;;
51366;SDS011;37458;49.428;8.646;2023-03-11T13:04:11;3.10;;;1.67;;
51366;SDS011;37458;49.428;8.646;2023-03-11T13:09:14;3.72;;;1.95;;
51366;SDS011;37458;49.428;8.646;2023-03-11T13:11:42;5.25;;;1.98;;
51366;SDS011;37458;49.428;8.646;2023-03-11T13:16:54;2.80;;;1.80;;
51366;SDS011;37458;49.428;8.646;2023-03-11T13:21:55;5.03;;;2.80;;
51366;SDS011;37458;49.428;8.646;2023-03-11T13:34:46;5.38;;;2.08;;
51366;SDS011;37458;49.428;8.646;2023-03-11T13:42:28;1.98;;;1.30;;
51366;SDS011;37458;49.428;8.646;2023-03-11T13:44:55;3.13;;;1.70;;
51366;SDS011;37458;49.428;8.646;2023-03-11T13:47:21;6.77;;;1.73;;
51366;SDS011;37458;49.428;8.646;2023-03-11T13:50:11;5.03;;;1.93;;
51366;SDS011;37458;49.428;8.646;2023-03-11T13:52:40;3.70;;;1.50;;
51366;SDS011;37458;49.428;8.646;2023-03-11T13:57:48;3.97;;;1.70;;
51366;SDS011;37458;49.428;8.646;2023-03-11T14:00:18;1.70;;;1.53;;
51366;SDS011;37458;49.428;8.646;2023-03-11T14:03:01;3.37;;;1.60;;
51366;SDS011;37458;49.428;8.646;2023-03-11T14:05:38;4.50;;;1.53;;
51366;SDS011;37458;49.428;8.646;2023-03-11T14:10:51;4.67;;;1.60;;
51366;SDS011;37458;49.428;8.646;2023-03-11T14:13:18;3.10;;;1.80;;
51366;SDS011;37458;49.428;8.646;2023-03-11T14:16:06;3.37;;;1.80;;
51366;SDS011;37458;49.428;8.646;2023-03-11T14:18:34;4.77;;;1.60;;
51366;SDS011;37458;49.428;8.646;2023-03-11T14:21:02;4.37;;;1.80;;
51366;SDS011;37458;49.428;8.646;2023-03-11T14:23:32;5.23;;;1.63;;
51366;SDS011;37458;49.428;8.646;2023-03-11T14:26:00;2.30;;;1.60;;
51366;SDS011;37458;49.428;8.646;2023-03-11T14:28:27;2.77;;;1.60;;
51366;SDS011;37458;49.428;8.646;2023-03-11T14:30:55;7.63;;;1.50;;
51366;SDS011;37458;49.428;8.646;2023-03-11T14:33:21;2.40;;;1.83;;
51366;SDS011;37458;49.428;8.646;2023-03-11T14:35:54;3.00;;;1.50;;
51366;SDS011;37458;49.428;8.646;2023-03-11T14:38:22;2.13;;;1.47;;
51366;SDS011;37458;49.428;8.646;2023-03-11T14:40:49;3.90;;;1.63;;
51366;SDS011;37458;49.428;8.646;2023-03-11T14:43:16;3.90;;;1.73;;
51366;SDS011;37458;49.428;8.646;2023-03-11T14:45:44;3.00;;;1.40;;
51366;SDS011;37458;49.428;8.646;2023-03-11T14:50:52;9.17;;;1.93;;
51366;SDS011;37458;49.428;8.646;2023-03-11T14:53:20;2.47;;;1.47;;
51366;SDS011;37458;49.428;8.646;2023-03-11T14:55:50;4.40;;;1.60;;
51366;SDS011;37458;49.428;8.646;2023-03-11T14:58:32;2.13;;;1.30;;
51366;SDS011;37458;49.428;8.646;2023-03-11T15:01:18;2.30;;;1.30;;
51366;SDS011;37458;49.428;8.646;2023-03-11T15:06:15;2.20;;;1.43;;
51366;SDS011;37458;49.428;8.646;2023-03-11T15:08:54;2.73;;;1.70;;
51366;SDS011;37458;49.428;8.646;2023-03-11T15:11:22;3.33;;;1.30;;
51366;SDS011;37458;49.428;8.646;2023-03-11T15:13:49;1.60;;;1.50;;
51366;SDS011;37458;49.428;8.646;2023-03-11T15:21:52;2.57;;;1.63;;
51366;SDS011;37458;49.428;8.646;2023-03-11T15:24:21;2.87;;;1.90;;
51366;SDS011;37458;49.428;8.646;2023-03-11T15:29:19;2.90;;;1.57;;
51366;SDS011;37458;49.428;8.646;2023-03-11T15:31:45;4.93;;;2.17;;
51366;SDS011;37458;49.428;8.646;2023-03-11T15:36:43;3.00;;;2.00;;
51366;SDS011;37458;49.428;8.646;2023-03-11T15:41:36;9.30;;;2.80;;
51366;SDS011;37458;49.428;8.646;2023-03-11T15:44:02;2.67;;;2.47;;
51366;SDS011;37458;49.428;8.646;2023-03-11T15:46:31;3.70;;;1.73;;
51366;SDS011;37458;49.428;8.646;2023-03-11T15:48:57;3.53;;;1.87;;
51366;SDS011;37458;49.428;8.646;2023-03-11T15:51:23;3.07;;;1.70;;
51366;SDS011;37458;49.428;8.646;2023-03-11T15:53:49;6.83;;;2.57;;
51366;SDS011;37458;49.428;8.646;2023-03-11T15:56:18;4.10;;;1.53;;
51366;SDS011;37458;49.428;8.646;2023-03-11T15:58:45;3.90;;;1.60;;
51366;SDS011;37458;49.428;8.646;2023-03-11T16:01:11;3.27;;;2.10;;
51366;SDS011;37458;49.428;8.646;2023-03-11T16:03:37;3.73;;;2.40;;
51366;SDS011;37458;49.428;8.646;2023-03-11T16:06:03;5.47;;;2.67;;
51366;SDS011;37458;49.428;8.646;2023-03-11T16:08:29;5.80;;;3.40;;
51366;SDS011;37458;49.428;8.646;2023-03-11T16:10:55;2.20;;;1.80;;
51366;SDS011;37458;49.428;8.646;2023-03-11T16:13:22;8.47;;;2.33;;
51366;SDS011;37458;49.428;8.646;2023-03-11T16:15:48;4.30;;;1.53;;
51366;SDS011;37458;49.428;8.646;2023-03-11T16:18:14;5.73;;;1.60;;
51366;SDS011;37458;49.428;8.646;2023-03-11T16:20:44;3.50;;;1.53;;
51366;SDS011;37458;49.428;8.646;2023-03-11T16:25:43;2.67;;;1.47;;
51366;SDS011;37458;49.428;8.646;2023-03-11T16:28:10;3.57;;;1.37;;
51366;SDS011;37458;49.428;8.646;2023-03-11T16:30:37;2.10;;;1.30;;
51366;SDS011;37458;49.428;8.646;2023-03-11T16:33:03;3.13;;;2.40;;
51366;SDS011;37458;49.428;8.646;2023-03-11T16:35:29;3.87;;;1.70;;
51366;SDS011;37458;49.428;8.646;2023-03-11T16:37:55;5.83;;;1.87;;
51366;SDS011;37458;49.428;8.646;2023-03-11T16:40:22;2.23;;;2.00;;
51366;SDS011;37458;49.428;8.646;2023-03-11T16:42:59;2.87;;;1.60;;
51366;SDS011;37458;49.428;8.646;2023-03-11T16:45:25;5.00;;;1.70;;
51366;SDS011;37458;49.428;8.646;2023-03-11T16:47:51;1.70;;;1.27;;
51366;SDS011;37458;49.428;8.646;2023-03-11T16:50:17;3.03;;;1.43;;
51366;SDS011;37458;49.428;8.646;2023-03-11T16:52:44;3.77;;;1.87;;
51366;SDS011;37458;49.428;8.646;2023-03-11T16:55:10;2.90;;;2.17;;
51366;SDS011;37458;49.428;8.646;2023-03-11T16:57:36;6.83;;;2.20;;
51366;SDS011;37458;49.428;8.646;2023-03-11T17:00:03;4.70;;;2.20;;
51366;SDS011;37458;49.428;8.646;2023-03-11T17:02:30;5.47;;;1.83;;
51366;SDS011;37458;49.428;8.646;2023-03-11T17:04:56;3.53;;;1.90;;
51366;SDS011;37458;49.428;8.646;2023-03-11T17:07:22;2.90;;;1.60;;
51366;SDS011;37458;49.428;8.646;2023-03-11T17:09:48;7.03;;;3.17;;
51366;SDS011;37458;49.428;8.646;2023-03-11T17:12:15;4.13;;;1.80;;
51366;SDS011;37458;49.428;8.646;2023-03-11T17:14:43;3.00;;;1.57;;
51366;SDS011;37458;49.428;8.646;2023-03-11T17:17:09;3.13;;;1.60;;
51366;SDS011;37458;49.428;8.646;2023-03-11T17:19:35;7.67;;;1.90;;
51366;SDS011;37458;49.428;8.646;2023-03-11T17:22:01;3.83;;;1.30;;
51366;SDS011;37458;49.428;8.646;2023-03-11T17:24:27;2.40;;;1.53;;
51366;SDS011;37458;49.428;8.646;2023-03-11T17:26:53;2.30;;;1.60;;
51366;SDS011;37458;49.428;8.646;2023-03-11T17:29:20;3.83;;;2.10;;
51366;SDS011;37458;49.428;8.646;2023-03-11T17:31:46;3.33;;;1.70;;
51366;SDS011;37458;49.428;8.646;2023-03-11T17:34:12;5.03;;;3.37;;
51366;SDS011;37458;49.428;8.646;2023-03-11T17:36:38;3.07;;;1.97;;
51366;SDS011;37458;49.428;8.646;2023-03-11T17:39:05;5.40;;;2.10;;
51366;SDS011;37458;49.428;8.646;2023-03-11T17:41:30;3.40;;;1.53;;
51366;SDS011;37458;49.428;8.646;2023-03-11T17:43:56;4.50;;;1.87;;
51366;SDS011;37458;49.428;8.646;2023-03-11T17:46:23;5.57;;;2.03;;
51366;SDS011;37458;49.428;8.646;2023-03-11T17:48:49;34.47;;;31.40;;
51366;SDS011;37458;49.428;8.646;2023-03-11T17:51:16;10.77;;;8.63;;
51366;SDS011;37458;49.428;8.646;2023-03-11T17:53:43;14.20;;;13.00;;
51366;SDS011;37458;49.428;8.646;2023-03-11T17:56:10;116.80;;;105.67;;
51366;SDS011;37458;49.428;8.646;2023-03-11T17:58:36;96.87;;;87.80;;
51366;SDS011;37458;49.428;8.646;2023-03-11T18:01:06;26.40;;;23.17;;
51366;SDS011;37458;49.428;8.646;2023-03-11T18:03:32;16.13;;;13.70;;
51366;SDS011;37458;49.428;8.646;2023-03-11T18:05:59;10.57;;;7.90;;
51366;SDS011;37458;49.428;8.646;2023-03-11T18:08:26;11.47;;;8.27;;
51366;SDS011;37458;49.428;8.646;2023-03-11T18:10:52;7.90;;;5.13;;
51366;SDS011;37458;49.428;8.646;2023-03-11T18:13:18;10.03;;;5.53;;
51366;SDS011;37458;49.428;8.646;2023-03-11T18:15:45;7.17;;;4.37;;
51366;SDS011;37458;49.428;8.646;2023-03-11T18:18:11;7.70;;;4.60;;
51366;SDS011;37458;49.428;8.646;2023-03-11T18:20:37;5.23;;;3.10;;
51366;SDS011;37458;49.428;8.646;2023-03-11T18:23:03;7.90;;;3.30;;
51366;SDS011;37458;49.428;8.646;2023-03-11T18:25:29;6.90;;;3.03;;
51366;SDS011;37458;49.428;8.646;2023-03-11T18:27:55;7.23;;;2.50;;
51366;SDS011;37458;49.428;8.646;2023-03-11T18:30:22;9.33;;;2.17;;
51366;SDS011;37458;49.428;8.646;2023-03-11T18:32:48;3.03;;;1.83;;
51366;SDS011;37458;49.428;8.646;2023-03-11T18:35:14;8.53;;;2.30;;
51366;SDS011;37458;49.428;8.646;2023-03-11T18:37:41;7.40;;;2.50;;
51366;SDS011;37458;49.428;8.646;2023-03-11T18:40:08;6.47;;;2.40;;
51366;SDS011;37458;49.428;8.646;2023-03-11T18:42:34;3.60;;;2.30;;
51366;SDS011;37458;49.428;8.646;2023-03-11T18:45:00;2.10;;;1.90;;
51366;SDS011;37458;49.428;8.646;2023-03-11T18:47:26;5.77;;;2.10;;
51366;SDS011;37458;49.428;8.646;2023-03-11T18:49:52;5.03;;;2.50;;
51366;SDS011;37458;49.428;8.646;2023-03-11T18:52:18;2.77;;;2.30;;
51366;SDS011;37458;49.428;8.646;2023-03-11T18:54:44;5.37;;;2.60;;
51366;SDS011;37458;49.428;8.646;2023-03-11T18:57:10;2.13;;;1.87;;
51366;SDS011;37458;49.428;8.646;2023-03-11T18:59:36;4.07;;;2.37;;
51366;SDS011;37458;49.428;8.646;2023-03-11T19:02:02;3.77;;;2.47;;
51366;SDS011;37458;49.428;8.646;2023-03-11T19:04:28;5.83;;;2.50;;
51366;SDS011;37458;49.428;8.646;2023-03-11T19:06:54;8.07;;;3.07;;
51366;SDS011;37458;49.428;8.646;2023-03-11T19:09:20;6.80;;;2.50;;
51366;SDS011;37458;49.428;8.646;2023-03-11T19:11:46;4.83;;;2.70;;
51366;SDS011;37458;49.428;8.646;2023-03-11T19:14:12;5.27;;;2.37;;
51366;SDS011;37458;49.428;8.646;2023-03-11T19:16:38;6.60;;;2.30;;
51366;SDS011;37458;49.428;8.646;2023-03-11T19:19:04;5.47;;;2.57;;
51366;SDS011;37458;49.428;8.646;2023-03-11T19:21:30;5.03;;;3.10;;
51366;SDS011;37458;49.428;8.646;2023-03-11T19:23:56;4.43;;;3.17;;
51366;SDS011;37458;49.428;8.646;2023-03-11T19:26:24;4.07;;;3.20;;
51366;SDS011;37458;49.428;8.646;2023-03-11T19:28:50;4.90;;;3.27;;
51366;SDS011;37458;49.428;8.646;2023-03-11T19:31:16;4.57;;;3.57;;
51366;SDS011;37458;49.428;8.646;2023-03-11T19:33:42;8.23;;;3.60;;
51366;SDS011;37458;49.428;8.646;2023-03-11T19:36:11;6.40;;;3.80;;
51366;SDS011;37458;49.428;8.646;2023-03-11T19:38:37;5.27;;;3.10;;
51366;SDS011;37458;49.428;8.646;2023-03-11T19:41:07;4.30;;;3.10;;
51366;SDS011;37458;49.428;8.646;2023-03-11T19:43:34;6.37;;;3.30;;
51366;SDS011;37458;49.428;8.646;2023-03-11T19:46:00;5.33;;;2.53;;
51366;SDS011;37458;49.428;8.646;2023-03-11T19:48:26;5.20;;;3.00;;
51366;SDS011;37458;49.428;8.646;2023-03-11T19:50:52;3.33;;;2.50;;
51366;SDS011;37458;49.428;8.646;2023-03-11T19:53:19;6.50;;;3.37;;
51366;SDS011;37458;49.428;8.646;2023-03-11T19:55:46;4.83;;;3.00;;
51366;SDS011;37458;49.428;8.646;2023-03-11T19:58:12;5.90;;;2.57;;
51366;SDS011;37458;49.428;8.646;2023-03-11T20:03:14;4.97;;;3.63;;
51366;SDS011;37458;49.428;8.646;2023-03-11T20:05:42;3.90;;;2.90;;
51366;SDS011;37458;49.428;8.646;2023-03-11T20:08:08;3.50;;;2.60;;
51366;SDS011;37458;49.428;8.646;2023-03-11T20:10:38;6.80;;;2.90;;
51366;SDS011;37458;49.428;8.646;2023-03-11T20:13:05;8.97;;;3.07;;
51366;SDS011;37458;49.428;8.646;2023-03-11T20:15:31;4.70;;;3.23;;
51366;SDS011;37458;49.428;8.646;2023-03-11T20:17:57;6.13;;;2.80;;
51366;SDS011;37458;49.428;8.646;2023-03-11T20:25:37;6.27;;;3.90;;
51366;SDS011;37458;49.428;8.646;2023-03-11T20:28:04;9.73;;;3.90;;
51366;SDS011;37458;49.428;8.646;2023-03-11T20:30:30;5.63;;;3.57;;
51366;SDS011;37458;49.428;8.646;2023-03-11T20:32:59;4.70;;;3.13;;
51366;SDS011;37458;49.428;8.646;2023-03-11T20:35:28;5.13;;;3.17;;
51366;SDS011;37458;49.428;8.646;2023-03-11T20:37:57;3.70;;;2.87;;
51366;SDS011;37458;49.428;8.646;2023-03-11T20:48:19;18.50;;;9.37;;
51366;SDS011;37458;49.428;8.646;2023-03-11T20:50:46;20.27;;;10.50;;
51366;SDS011;37458;49.428;8.646;2023-03-11T20:53:11;18.27;;;10.33;;
51366;SDS011;37458;49.428;8.646;2023-03-11T20:55:38;14.27;;;8.07;;
51366;SDS011;37458;49.428;8.646;2023-03-11T20:58:07;16.77;;;9.27;;
51366;SDS011;37458;49.428;8.646;2023-03-11T21:00:33;15.27;;;8.27;;
51366;SDS011;37458;49.428;8.646;2023-03-11T21:02:59;18.60;;;7.57;;
51366;SDS011;37458;49.428;8.646;2023-03-11T21:05:25;20.30;;;10.50;;
51366;SDS011;37458;49.428;8.646;2023-03-11T21:07:51;16.50;;;9.47;;
51366;SDS011;37458;49.428;8.646;2023-03-11T21:10:17;15.33;;;8.90;;
51366;SDS011;37458;49.428;8.646;2023-03-11T21:12:43;13.23;;;5.90;;
51366;SDS011;37458;49.428;8.646;2023-03-11T21:15:09;9.33;;;5.57;;
51366;SDS011;37458;49.428;8.646;2023-03-11T21:17:36;10.10;;;4.87;;
51366;SDS011;37458;49.428;8.646;2023-03-11T21:20:02;7.77;;;4.50;;
51366;SDS011;37458;49.428;8.646;2023-03-11T21:22:29;11.50;;;4.20;;
51366;SDS011;37458;49.428;8.646;2023-03-11T21:24:55;5.73;;;3.57;;
51366;SDS011;37458;49.428;8.646;2023-03-11T21:27:21;5.00;;;4.27;;
51366;SDS011;37458;49.428;8.646;2023-03-11T21:29:54;7.00;;;3.97;;
51366;SDS011;37458;49.428;8.646;2023-03-11T21:32:20;15.43;;;7.40;;
51366;SDS011;37458;49.428;8.646;2023-03-11T21:34:47;11.73;;;7.10;;
51366;SDS011;37458;49.428;8.646;2023-03-11T21:37:13;17.67;;;9.07;;
51366;SDS011;37458;49.428;8.646;2023-03-11T21:39:39;11.33;;;7.00;;
51366;SDS011;37458;49.428;8.646;2023-03-11T21:42:05;15.37;;;6.60;;
51366;SDS011;37458;49.428;8.646;2023-03-11T21:44:31;9.77;;;5.57;;
51366;SDS011;37458;49.428;8.646;2023-03-11T21:46:57;6.27;;;4.23;;
51366;SDS011;37458;49.428;8.646;2023-03-11T21:49:23;10.03;;;3.97;;
51366;SDS011;37458;49.428;8.646;2023-03-11T21:51:49;9.23;;;3.77;;
51366;SDS011;37458;49.428;8.646;2023-03-11T21:54:15;8.50;;;3.27;;
51366;SDS011;37458;49.428;8.646;2023-03-11T21:56:41;7.03;;;4.03;;
51366;SDS011;37458;49.428;8.646;2023-03-11T21:59:07;5.30;;;3.70;;
51366;SDS011;37458;49.428;8.646;2023-03-11T22:01:33;5.97;;;3.10;;
51366;SDS011;37458;49.428;8.646;2023-03-11T22:03:59;7.47;;;2.90;;
51366;SDS011;37458;49.428;8.646;2023-03-11T22:06:26;3.70;;;2.47;;
51366;SDS011;37458;49.428;8.646;2023-03-11T22:08:52;3.70;;;2.30;;
51366;SDS011;37458;49.428;8.646;2023-03-11T22:11:18;5.00;;;2.57;;
51366;SDS011;37458;49.428;8.646;2023-03-11T22:13:48;4.97;;;2.80;;
51366;SDS011;37458;49.428;8.646;2023-03-11T22:16:15;5.13;;;3.00;;
51366;SDS011;37458;49.428;8.646;2023-03-11T22:18:41;4.37;;;2.77;;
51366;SDS011;37458;49.428;8.646;2023-03-11T22:21:07;3.77;;;2.70;;
51366;SDS011;37458;49.428;8.646;2023-03-11T22:23:33;5.03;;;2.80;;
51366;SDS011;37458;49.428;8.646;2023-03-11T22:25:59;5.93;;;2.63;;
51366;SDS011;37458;49.428;8.646;2023-03-11T22:28:25;4.30;;;3.30;;
51366;SDS011;37458;49.428;8.646;2023-03-11T22:30:51;5.93;;;2.83;;
51366;SDS011;37458;49.428;8.646;2023-03-11T22:33:18;4.67;;;3.10;;
51366;SDS011;37458;49.428;8.646;2023-03-11T22:35:48;2.63;;;2.40;;
51366;SDS011;37458;49.428;8.646;2023-03-11T22:38:14;3.27;;;2.40;;
51366;SDS011;37458;49.428;8.646;2023-03-11T22:40:40;6.23;;;2.80;;
51366;SDS011;37458;49.428;8.646;2023-03-11T22:43:06;4.40;;;2.70;;
51366;SDS011;37458;49.428;8.646;2023-03-11T22:45:32;6.27;;;2.30;;
51366;SDS011;37458;49.428;8.646;2023-03-11T22:47:58;3.80;;;2.10;;
51366;SDS011;37458;49.428;8.646;2023-03-11T22:50:24;6.03;;;2.10;;
51366;SDS011;37458;49.428;8.646;2023-03-11T22:52:50;5.13;;;2.33;;
